createdAt,value
2019-05-07T00:01:18.216Z,18.65
2019-05-07T00:06:23.093Z,18.65
2019-05-07T00:11:26.567Z,18.65
2019-05-07T00:16:29.903Z,18.64
2019-05-07T00:21:33.239Z,18.62
2019-05-07T00:26:36.755Z,18.58
2019-05-07T00:31:41.976Z,18.57
2019-05-07T00:36:49.851Z,18.55
2019-05-07T00:42:02.934Z,18.54
2019-05-07T00:47:05.714Z,18.52
2019-05-07T00:52:11.506Z,18.52
2019-05-07T00:57:14.190Z,18.50
2019-05-07T01:02:17.488Z,18.50
2019-05-07T01:07:22.877Z,18.50
2019-05-07T01:12:25.881Z,18.51
2019-05-07T01:17:29.218Z,18.50
2019-05-07T01:22:33.125Z,18.50
2019-05-07T01:27:36.546Z,18.52
2019-05-07T01:32:47.494Z,18.49
2019-05-07T01:37:52.461Z,18.49
2019-05-07T01:42:55.778Z,18.49
2019-05-07T01:47:59.085Z,18.50
2019-05-07T01:53:03.899Z,18.49
2019-05-07T01:58:07.370Z,18.50
2019-05-07T02:03:12.323Z,18.50
2019-05-07T02:08:32.955Z,18.49
2019-05-07T02:13:36.341Z,18.47
2019-05-07T02:18:39.632Z,18.47
2019-05-07T02:23:42.938Z,18.46
2019-05-07T02:28:46.258Z,18.45
2019-05-07T02:33:49.574Z,18.45
2019-05-07T02:38:57.172Z,18.44
2019-05-07T02:44:03.966Z,18.44
2019-05-07T02:49:14.234Z,18.43
2019-05-07T02:54:35.087Z,18.42
2019-05-07T02:59:38.470Z,18.44
2019-05-07T03:04:43.611Z,18.43
2019-05-07T03:09:46.837Z,18.42
2019-05-07T03:14:53.368Z,18.39
2019-05-07T03:19:56.476Z,18.35
2019-05-07T03:25:03.429Z,18.31
2019-05-07T03:30:25.559Z,18.32
2019-05-07T03:35:27.699Z,18.31
2019-05-07T03:40:33.145Z,18.30
2019-05-07T03:45:38.107Z,18.28
2019-05-07T03:50:43.121Z,18.11
2019-05-07T03:55:46.442Z,18.19
2019-05-07T04:00:53.167Z,18.33
2019-05-07T04:05:54.781Z,18.39
2019-05-07T04:10:58.110Z,18.42
2019-05-07T04:16:04.069Z,18.25
2019-05-07T04:21:06.524Z,18.37
2019-05-07T04:26:23.151Z,18.52
2019-05-07T04:31:27.181Z,18.59
2019-05-07T04:36:34.239Z,18.59
2019-05-07T04:41:36.898Z,18.50
2019-05-07T04:46:43.767Z,18.57
2019-05-07T04:51:49.359Z,18.42
2019-05-07T04:56:53.289Z,18.38
2019-05-07T05:02:03.854Z,18.45
2019-05-07T05:07:05.341Z,18.53
2019-05-07T05:12:08.657Z,18.45
2019-05-07T05:17:12.993Z,18.53
2019-05-07T05:22:17.966Z,18.52
2019-05-07T05:27:22.599Z,18.51
2019-05-07T05:32:25.998Z,18.50
2019-05-07T05:37:29.316Z,18.50
2019-05-07T05:42:34.271Z,18.49
2019-05-07T05:47:37.566Z,18.49
2019-05-07T05:52:42.573Z,18.47
2019-05-07T05:57:56.075Z,18.48
2019-05-07T06:03:06.857Z,18.51
2019-05-07T06:08:12.443Z,18.51
2019-05-07T06:13:32.414Z,18.53
2019-05-07T06:18:53.622Z,18.56
2019-05-07T06:24:02.251Z,18.58
2019-05-07T06:29:05.615Z,18.58
2019-05-07T06:34:08.929Z,18.58
2019-05-07T06:39:22.039Z,18.59
2019-05-07T06:44:25.188Z,18.61
2019-05-07T06:49:28.499Z,18.62
2019-05-07T06:54:32.198Z,18.63
2019-05-07T06:59:42.234Z,18.63
2019-05-07T07:04:46.819Z,18.62
2019-05-07T07:09:57.361Z,18.60
2019-05-07T07:15:02.780Z,18.60
2019-05-07T07:20:06.309Z,18.62
2019-05-07T07:25:11.764Z,18.61
2019-05-07T07:30:25.020Z,18.65
2019-05-07T07:35:42.823Z,18.67
2019-05-07T07:40:47.835Z,18.63
2019-05-07T07:45:52.590Z,18.63
2019-05-07T07:50:55.902Z,18.71
2019-05-07T07:56:16.773Z,18.69
2019-05-07T08:01:27.835Z,18.70
2019-05-07T08:06:32.728Z,18.74
2019-05-07T08:11:36.049Z,18.67
2019-05-07T08:16:39.385Z,18.66
2019-05-07T08:21:42.725Z,18.66
2019-05-07T08:26:46.070Z,18.81
2019-05-07T08:31:59.747Z,18.78
2019-05-07T08:37:03.161Z,18.76
2019-05-07T08:42:06.490Z,18.84
2019-05-07T08:47:20.005Z,18.81
2019-05-07T08:52:25.890Z,18.95
2019-05-07T08:57:28.403Z,18.98
2019-05-07T09:02:32.626Z,18.86
2019-05-07T09:07:36.022Z,18.83
2019-05-07T09:12:39.319Z,18.77
2019-05-07T09:17:42.640Z,18.70
2019-05-07T09:22:45.940Z,18.66
2019-05-07T09:27:52.348Z,18.67
2019-05-07T09:33:06.089Z,18.66
2019-05-07T09:38:09.377Z,18.66
2019-05-07T09:43:12.730Z,18.66
2019-05-07T09:48:16.073Z,18.67
2019-05-07T09:53:19.370Z,18.69
2019-05-07T09:58:35.709Z,18.66
2019-05-07T10:03:27.753Z,18.64
2019-05-07T10:08:32.598Z,18.64
2019-05-07T10:13:37.547Z,18.79
2019-05-07T10:18:42.705Z,18.98
2019-05-07T10:23:46.096Z,18.87
2019-05-07T10:28:49.399Z,18.70
2019-05-07T10:33:52.753Z,18.67
2019-05-07T10:38:56.053Z,18.66
2019-05-07T10:43:59.435Z,18.67
2019-05-07T10:49:18.979Z,18.80
2019-05-07T10:54:22.307Z,18.74
2019-05-07T10:59:25.626Z,18.70
2019-05-07T11:04:40.263Z,18.75
2019-05-07T11:09:34.065Z,18.85
2019-05-07T11:14:37.406Z,18.78
2019-05-07T11:19:41.671Z,18.88
2019-05-07T11:24:45.026Z,18.89
2019-05-07T11:29:48.368Z,18.80
2019-05-07T11:34:52.877Z,18.79
2019-05-07T11:39:56.790Z,18.75
2019-05-07T11:45:02.173Z,18.74
2019-05-07T11:50:14.743Z,18.78
2019-05-07T11:55:18.251Z,18.98
2019-05-07T12:00:38.892Z,18.88
2019-05-07T12:05:42.391Z,18.84
2019-05-07T12:10:45.726Z,18.84
2019-05-07T12:15:49.053Z,18.95
2019-05-07T12:20:54.209Z,18.97
2019-05-07T12:25:57.608Z,18.95
2019-05-07T12:31:14.660Z,18.96
2019-05-07T12:36:18.076Z,18.88
2019-05-07T12:41:30.028Z,18.92
2019-05-07T12:46:33.636Z,18.92
2019-05-07T12:51:38.602Z,18.87
2019-05-07T12:56:42.657Z,18.92
2019-05-07T13:01:52.015Z,18.96
2019-05-07T13:07:08.568Z,18.98
2019-05-07T13:12:11.874Z,18.97
2019-05-07T13:17:15.196Z,18.96
2019-05-07T13:22:18.498Z,18.88
2019-05-07T13:27:21.883Z,18.87
2019-05-07T13:32:25.192Z,18.86
2019-05-07T13:37:30.129Z,18.88
2019-05-07T13:42:44.127Z,18.88
2019-05-07T13:47:49.161Z,18.87
2019-05-07T13:52:52.465Z,18.88
2019-05-07T13:57:55.814Z,18.88
2019-05-07T14:02:59.150Z,18.91
2019-05-07T14:08:04.527Z,18.84
2019-05-07T14:13:14.221Z,18.75
2019-05-07T14:18:12.674Z,18.74
2019-05-07T14:23:15.992Z,18.91
2019-05-07T14:28:19.288Z,18.98
2019-05-07T14:33:39.090Z,18.98
2019-05-07T14:38:46.759Z,18.99
2019-05-07T14:43:57.208Z,18.94
2019-05-07T14:49:02.633Z,18.79
2019-05-07T14:54:05.547Z,18.93
2019-05-07T14:59:08.855Z,18.95
2019-05-07T15:04:12.914Z,19.03
2019-05-07T15:09:16.331Z,19.00
2019-05-07T15:14:19.637Z,18.98
2019-05-07T15:19:23.022Z,18.98
2019-05-07T15:24:26.310Z,18.98
2019-05-07T15:29:31.742Z,19.03
2019-05-07T15:34:34.672Z,19.01
2019-05-07T15:39:38.337Z,18.99
2019-05-07T15:44:43.191Z,19.01
2019-05-07T15:49:46.528Z,18.99
2019-05-07T15:54:49.827Z,18.99
2019-05-07T15:59:54.825Z,18.98
2019-05-07T16:04:58.160Z,19.00
2019-05-07T16:10:01.525Z,18.99
2019-05-07T16:15:07.094Z,18.98
2019-05-07T16:20:12.055Z,18.97
2019-05-07T16:25:15.513Z,18.95
2019-05-07T16:30:18.856Z,18.90
2019-05-07T16:35:22.758Z,18.74
2019-05-07T16:40:26.242Z,18.65
2019-05-07T16:45:29.550Z,18.61
2019-05-07T16:50:32.915Z,18.57
2019-05-07T16:55:36.974Z,18.57
2019-05-07T17:00:42.378Z,18.65
2019-05-07T17:05:45.750Z,18.56
2019-05-07T17:10:49.120Z,18.58
2019-05-07T17:15:56.577Z,18.53
2019-05-07T17:21:01.880Z,18.44
2019-05-07T17:26:05.132Z,18.42
2019-05-07T17:31:08.502Z,18.35
2019-05-07T17:36:12.267Z,18.37
2019-05-07T17:41:21.270Z,18.36
2019-05-07T17:46:21.704Z,18.50
2019-05-07T17:51:42.290Z,18.55
2019-05-07T17:56:45.769Z,18.54
2019-05-07T18:01:53.228Z,18.52
2019-05-07T18:06:56.600Z,18.52
2019-05-07T18:11:59.932Z,18.51
2019-05-07T18:17:04.893Z,18.56
2019-05-07T18:22:08.367Z,18.49
2019-05-07T18:27:13.323Z,18.34
2019-05-07T18:32:16.634Z,18.34
2019-05-07T18:37:19.944Z,18.33
2019-05-07T18:42:23.271Z,18.35
2019-05-07T18:47:26.680Z,18.33
2019-05-07T18:52:31.892Z,18.35
2019-05-07T18:57:35.098Z,18.48
2019-05-07T19:02:38.471Z,18.66
2019-05-07T19:07:41.869Z,18.36
2019-05-07T19:12:45.337Z,18.22
2019-05-07T19:17:48.656Z,18.17
2019-05-07T19:22:52.045Z,18.29
2019-05-07T19:27:55.396Z,18.30
2019-05-07T19:32:58.721Z,18.32
2019-05-07T19:38:02.849Z,18.34
2019-05-07T19:43:06.499Z,18.34
2019-05-07T19:48:09.862Z,18.33
2019-05-07T19:53:13.266Z,18.31
2019-05-07T19:58:16.576Z,18.44
2019-05-07T20:03:22.223Z,18.46
2019-05-07T20:08:24.993Z,18.45
2019-05-07T20:13:28.378Z,18.45
2019-05-07T20:18:32.718Z,18.43
2019-05-07T20:23:36.515Z,18.41
2019-05-07T20:28:41.693Z,18.35
2019-05-07T20:33:44.871Z,18.38
2019-05-07T20:38:48.183Z,18.36
2019-05-07T20:43:52.380Z,18.36
2019-05-07T20:48:55.795Z,18.35
2019-05-07T20:54:03.534Z,18.36
2019-05-07T20:59:06.934Z,18.38
2019-05-07T21:04:12.752Z,18.42
2019-05-07T21:09:15.352Z,18.44
2019-05-07T21:14:18.651Z,18.46
2019-05-07T21:19:22.432Z,18.47
2019-05-07T21:24:25.860Z,18.47
2019-05-07T21:29:29.166Z,18.47
2019-05-07T21:34:32.493Z,18.46
2019-05-07T21:39:35.809Z,18.44
2019-05-07T21:44:39.119Z,18.45
2019-05-07T21:49:43.147Z,18.43
2019-05-07T21:54:48.087Z,18.43
2019-05-07T21:59:54.972Z,18.43
2019-05-07T22:04:58.121Z,18.41
2019-05-07T22:10:02.198Z,18.41
2019-05-07T22:15:05.658Z,18.39
2019-05-07T22:20:08.982Z,18.38
2019-05-07T22:25:13.109Z,18.39
2019-05-07T22:30:24.084Z,18.38
2019-05-07T22:35:32.019Z,18.39
2019-05-07T22:40:35.354Z,18.40
2019-05-07T22:45:38.772Z,18.40
2019-05-07T22:50:44.000Z,18.41
2019-05-07T22:55:47.186Z,18.40
2019-05-07T23:00:57.886Z,18.42
2019-05-07T23:06:06.789Z,18.40
2019-05-07T23:11:12.321Z,18.40
2019-05-07T23:16:15.180Z,18.40
2019-05-07T23:21:18.481Z,18.39
2019-05-07T23:26:23.344Z,18.39
2019-05-07T23:31:26.851Z,18.40
2019-05-07T23:36:30.217Z,18.39
2019-05-07T23:41:44.193Z,18.39
2019-05-07T23:46:47.534Z,18.40
2019-05-07T23:51:52.820Z,18.38
2019-05-07T23:57:05.921Z,18.39
